Time;durP1;ratioP1;P1;durP2;ratioP2;P2;SDS_P1;SDS_P2;PMS_P1;PMS_P2;Temp;Humidity;BMP_temperature;BMP_pressure;BME280_temperature;BME280_humidity;BME280_pressure;Samples;Min_cycle;Max_cycle;Signal;HPM_P1;HPM_P2
2022/01/16 00:04:11;;;;;;;151.73;62.80;;;;;;;;;;4995986;28;20030;-47
2022/01/16 00:06:42;;;;;;;143.38;60.83;;;;;;;;;;4996046;28;20030;-47
2022/01/16 00:09:11;;;;;;;194.77;64.03;;;;;;;;;;4995815;28;20362;-49
2022/01/16 00:11:39;;;;;;;162.63;63.25;;;;;;;;;;4978423;28;20496;-46
2022/01/16 00:14:05;;;;;;;170.23;66.15;;;;;;;;;;4995737;28;20033;-49
2022/01/16 00:16:30;;;;;;;238.98;67.00;;;;;;;;;;4995806;28;20018;-49
2022/01/16 00:18:57;;;;;;;189.13;60.30;;;;;;;;;;4995725;28;20100;-47
2022/01/16 00:21:23;;;;;;;264.45;65.35;;;;;;;;;;4995567;28;20094;-50
2022/01/16 00:23:49;;;;;;;166.45;60.67;;;;;;;;;;4995714;28;20027;-47
2022/01/16 00:26:15;;;;;;;198.85;62.63;;;;;;;;;;4995433;28;20022;-47
2022/01/16 00:28:40;;;;;;;408.70;79.55;;;;;;;;;;4977971;28;20026;-47
2022/01/16 00:31:05;;;;;;;371.77;78.38;;;;;;;;;;4995618;28;20022;-47
2022/01/16 00:33:31;;;;;;;175.13;67.10;;;;;;;;;;4996696;28;20014;-47
2022/01/16 00:35:57;;;;;;;354.40;79.15;;;;;;;;;;4995596;28;20117;-47
2022/01/16 00:38:22;;;;;;;692.13;110.50;;;;;;;;;;4995279;28;20088;-48
2022/01/16 00:40:52;;;;;;;251.75;73.93;;;;;;;;;;4995755;28;20014;-47
2022/01/16 00:43:17;;;;;;;241.00;71.97;;;;;;;;;;4995420;28;20346;-46
2022/01/16 00:45:43;;;;;;;163.38;64.13;;;;;;;;;;4995162;28;20029;-47
2022/01/16 00:48:08;;;;;;;164.07;67.28;;;;;;;;;;4995275;28;20030;-47
2022/01/16 00:50:34;;;;;;;201.15;70.97;;;;;;;;;;4995246;28;20088;-48
2022/01/16 00:53:00;;;;;;;217.82;70.00;;;;;;;;;;4995142;28;20054;-47
2022/01/16 00:55:32;;;;;;;234.30;72.70;;;;;;;;;;4995059;28;20085;-48
2022/01/16 00:57:57;;;;;;;174.90;62.80;;;;;;;;;;4994972;28;20035;-47
2022/01/16 01:00:22;;;;;;;161.90;68.35;;;;;;;;;;4994954;28;20026;-46
2022/01/16 01:02:48;;;;;;;177.57;69.35;;;;;;;;;;4994901;28;20018;-47
2022/01/16 01:05:16;;;;;;;159.10;65.28;;;;;;;;;;4994901;28;20081;-47
2022/01/16 01:07:41;;;;;;;155.35;67.53;;;;;;;;;;4994887;28;20150;-47
2022/01/16 01:10:07;;;;;;;154.85;69.05;;;;;;;;;;4994719;28;20018;-46
2022/01/16 01:12:53;;;;;;;153.05;67.45;;;;;;;;;;4994811;28;20026;-47
2022/01/16 01:15:25;;;;;;;145.20;64.88;;;;;;;;;;4994764;28;20477;-46
2022/01/16 01:17:50;;;;;;;158.43;69.43;;;;;;;;;;4994763;28;20019;-48
2022/01/16 01:20:18;;;;;;;151.68;67.80;;;;;;;;;;4994721;28;20017;-46
2022/01/16 01:22:44;;;;;;;133.27;65.35;;;;;;;;;;4994772;28;20022;-47
2022/01/16 01:25:12;;;;;;;154.93;68.05;;;;;;;;;;4994747;28;20018;-47
2022/01/16 01:27:41;;;;;;;142.63;67.18;;;;;;;;;;4977575;28;20029;-49
2022/01/16 01:30:09;;;;;;;138.48;65.78;;;;;;;;;;4994587;28;20385;-46
2022/01/16 01:32:36;;;;;;;147.18;68.93;;;;;;;;;;4994547;28;20377;-46
2022/01/16 01:35:02;;;;;;;131.23;65.13;;;;;;;;;;4994602;28;20030;-47
2022/01/16 01:37:27;;;;;;;129.35;67.07;;;;;;;;;;5012163;23;20065;-47
2022/01/16 01:39:53;;;;;;;134.05;64.53;;;;;;;;;;5014201;28;20096;-47
2022/01/16 01:42:18;;;;;;;129.23;65.13;;;;;;;;;;5014156;28;20053;-48
2022/01/16 01:53:04;;;;;;;114.55;60.47;;;;;;;;;;5018129;28;20511;-47
2022/01/16 01:55:29;;;;;;;124.60;63.22;;;;;;;;;;5017788;28;20022;-47
2022/01/16 01:57:54;;;;;;;112.97;61.17;;;;;;;;;;5017785;28;20033;-48
2022/01/16 02:00:20;;;;;;;113.18;60.65;;;;;;;;;;5017713;28;20018;-47
2022/01/16 02:05:20;;;;;;;111.40;57.75;;;;;;;;;;5017844;28;20433;-46
2022/01/16 02:07:46;;;;;;;107.40;58.45;;;;;;;;;;5017664;28;20065;-46
2022/01/16 02:10:14;;;;;;;109.95;56.05;;;;;;;;;;5017577;28;20022;-48
2022/01/16 02:12:43;;;;;;;111.97;60.22;;;;;;;;;;5017461;28;20018;-47
2022/01/16 02:15:35;;;;;;;105.30;57.47;;;;;;;;;;5017415;28;20350;-46
2022/01/16 02:29:28;;;;;;;109.90;57.30;;;;;;;;;;5017448;28;20033;-47
2022/01/16 02:31:44;;;;;;;105.22;56.40;;;;;;;;;;5016869;28;20030;-45
2022/01/16 02:37:02;;;;;;;102.22;55.83;;;;;;;;;;5017056;28;20057;-48
2022/01/16 02:39:35;;;;;;;102.82;56.90;;;;;;;;;;4999453;28;20018;-51
2022/01/16 02:42:02;;;;;;;97.32;54.22;;;;;;;;;;5017081;28;20103;-46
2022/01/16 02:44:45;;;;;;;97.35;55.28;;;;;;;;;;5017010;28;20022;-48
2022/01/16 02:47:11;;;;;;;101.45;56.28;;;;;;;;;;5016950;28;20025;-49
2022/01/16 02:49:36;;;;;;;101.22;57.03;;;;;;;;;;5017010;28;20381;-48
2022/01/16 02:52:03;;;;;;;103.75;57.38;;;;;;;;;;5016911;28;20010;-49
2022/01/16 02:54:37;;;;;;;108.82;55.92;;;;;;;;;;5016725;28;20633;-48
2022/01/16 02:57:03;;;;;;;101.45;57.22;;;;;;;;;;5016284;28;20049;-47
2022/01/16 02:59:28;;;;;;;104.07;57.45;;;;;;;;;;5016728;28;20057;-48
2022/01/16 03:01:54;;;;;;;101.95;58.33;;;;;;;;;;5016517;28;20406;-50
2022/01/16 03:04:19;;;;;;;99.18;56.85;;;;;;;;;;5016643;28;20021;-49
2022/01/16 03:06:45;;;;;;;99.53;54.83;;;;;;;;;;5016520;28;20499;-48
2022/01/16 03:09:10;;;;;;;103.45;55.75;;;;;;;;;;5016644;28;20028;-47
2022/01/16 03:11:43;;;;;;;96.75;55.22;;;;;;;;;;5016458;28;20025;-49
2022/01/16 03:14:12;;;;;;;102.18;54.65;;;;;;;;;;5016545;28;20042;-46
2022/01/16 03:16:42;;;;;;;87.05;44.83;;;;;;;;;;5016463;28;20024;-47
2022/01/16 03:21:54;;;;;;;103.32;55.10;;;;;;;;;;5017616;28;20029;-48
2022/01/16 03:24:27;;;;;;;104.53;56.22;;;;;;;;;;5016589;28;20018;-47
2022/01/16 03:26:57;;;;;;;103.57;56.42;;;;;;;;;;5016353;28;20040;-47
2022/01/16 03:29:22;;;;;;;97.28;55.83;;;;;;;;;;5016207;28;20384;-47
2022/01/16 03:31:48;;;;;;;104.63;58.78;;;;;;;;;;5015998;28;20515;-47
2022/01/16 03:34:13;;;;;;;104.68;56.40;;;;;;;;;;5016131;28;20022;-47
2022/01/16 03:36:38;;;;;;;104.18;57.60;;;;;;;;;;5015745;28;20136;-47
2022/01/16 03:39:03;;;;;;;106.90;57.95;;;;;;;;;;5016076;28;20014;-47
2022/01/16 03:41:34;;;;;;;103.95;55.35;;;;;;;;;;5015849;28;20018;-47
2022/01/16 03:44:01;;;;;;;106.85;57.15;;;;;;;;;;5015935;28;20388;-47
2022/01/16 03:46:29;;;;;;;96.25;55.95;;;;;;;;;;5015733;28;20018;-47
2022/01/16 03:48:55;;;;;;;105.07;55.85;;;;;;;;;;5015725;28;20033;-47
2022/01/16 03:51:20;;;;;;;102.63;56.15;;;;;;;;;;5015787;28;20029;-47
2022/01/16 03:53:46;;;;;;;108.72;58.75;;;;;;;;;;4997941;28;20112;-47
2022/01/16 03:56:12;;;;;;;102.18;57.03;;;;;;;;;;5015555;28;20372;-47
2022/01/16 03:58:37;;;;;;;98.55;53.75;;;;;;;;;;5015629;28;20077;-47
2022/01/16 04:01:02;;;;;;;108.35;56.67;;;;;;;;;;5015582;28;20421;-47
2022/01/16 04:03:27;;;;;;;106.53;57.58;;;;;;;;;;5015542;28;20424;-47
2022/01/16 04:05:53;;;;;;;106.80;58.75;;;;;;;;;;5015425;28;20159;-47
2022/01/16 04:08:19;;;;;;;102.65;57.10;;;;;;;;;;5014803;28;20026;-47
2022/01/16 04:10:45;;;;;;;106.55;59.05;;;;;;;;;;5015261;28;20536;-47
2022/01/16 04:13:11;;;;;;;105.47;58.65;;;;;;;;;;5015271;28;20049;-46
2022/01/16 04:15:37;;;;;;;102.47;56.28;;;;;;;;;;5015407;28;20424;-47
2022/01/16 04:18:05;;;;;;;106.70;58.80;;;;;;;;;;5015177;28;20018;-47
2022/01/16 04:20:32;;;;;;;94.50;54.15;;;;;;;;;;5015258;28;20022;-47
2022/01/16 04:22:57;;;;;;;98.32;54.10;;;;;;;;;;4997566;28;20101;-48
2022/01/16 04:25:22;;;;;;;97.65;56.10;;;;;;;;;;4997566;28;20237;-47
2022/01/16 04:27:47;;;;;;;96.78;54.20;;;;;;;;;;5015056;28;20050;-47
2022/01/16 04:30:13;;;;;;;98.45;54.58;;;;;;;;;;5015138;28;20022;-47
2022/01/16 04:32:38;;;;;;;103.90;55.38;;;;;;;;;;5015095;28;20045;-47
2022/01/16 04:35:04;;;;;;;101.80;54.67;;;;;;;;;;5014865;28;20022;-47
2022/01/16 04:37:32;;;;;;;103.85;55.50;;;;;;;;;;5014724;28;20077;-47
2022/01/16 04:40:03;;;;;;;95.13;52.05;;;;;;;;;;5014773;28;20014;-50
2022/01/16 04:45:12;;;;;;;93.95;52.55;;;;;;;;;;5015164;28;20100;-48
2022/01/16 04:47:38;;;;;;;101.93;54.30;;;;;;;;;;5014820;28;20026;-47
2022/01/16 04:50:06;;;;;;;101.28;53.20;;;;;;;;;;5014794;28;20034;-47
2022/01/16 04:52:34;;;;;;;93.85;53.55;;;;;;;;;;5014741;28;20022;-47
2022/01/16 04:55:00;;;;;;;92.55;53.45;;;;;;;;;;5014729;28;20026;-46
2022/01/16 04:57:25;;;;;;;98.75;54.58;;;;;;;;;;5014482;28;20025;-47
2022/01/16 04:59:50;;;;;;;93.35;53.90;;;;;;;;;;5014506;28;20054;-47
2022/01/16 05:02:15;;;;;;;96.72;53.40;;;;;;;;;;5013408;28;20100;-48
2022/01/16 05:04:46;;;;;;;94.80;53.28;;;;;;;;;;5014403;28;20017;-47
2022/01/16 05:07:11;;;;;;;100.65;53.95;;;;;;;;;;5014493;28;20021;-47
2022/01/16 05:09:36;;;;;;;99.45;54.38;;;;;;;;;;5014091;28;20033;-47
2022/01/16 05:12:08;;;;;;;95.72;52.55;;;;;;;;;;4996862;28;20017;-47
2022/01/16 05:17:18;;;;;;;99.63;53.55;;;;;;;;;;5014737;28;20033;-47
2022/01/16 05:19:44;;;;;;;98.28;52.75;;;;;;;;;;5014266;28;20109;-48
2022/01/16 05:22:10;;;;;;;103.63;55.70;;;;;;;;;;5014242;28;20025;-46
2022/01/16 05:24:37;;;;;;;97.60;53.15;;;;;;;;;;5014178;28;20021;-47
2022/01/16 05:27:04;;;;;;;100.70;52.70;;;;;;;;;;5014328;28;20018;-47
2022/01/16 05:29:30;;;;;;;95.10;53.47;;;;;;;;;;5014163;28;20018;-47
2022/01/16 05:31:55;;;;;;;94.28;51.95;;;;;;;;;;5014113;28;20044;-47
2022/01/16 05:34:23;;;;;;;86.43;51.90;;;;;;;;;;5014517;28;20476;-47
2022/01/16 05:36:51;;;;;;;91.50;49.95;;;;;;;;;;5013892;28;20393;-47
2022/01/16 05:39:16;;;;;;;88.63;49.53;;;;;;;;;;5014156;28;20040;-47
2022/01/16 05:41:41;;;;;;;84.10;48.85;;;;;;;;;;5014173;28;20524;-50
2022/01/16 05:44:07;;;;;;;85.93;50.15;;;;;;;;;;5014170;28;20430;-47
2022/01/16 05:46:32;;;;;;;89.35;47.88;;;;;;;;;;5014084;28;20076;-47
2022/01/16 05:49:06;;;;;;;80.75;46.70;;;;;;;;;;5014069;28;20144;-47
2022/01/16 05:51:31;;;;;;;81.75;45.45;;;;;;;;;;5014062;28;20030;-49
2022/01/16 05:53:57;;;;;;;79.22;44.15;;;;;;;;;;5014036;28;20095;-47
2022/01/16 05:56:22;;;;;;;77.63;42.92;;;;;;;;;;5014080;28;20547;-48
2022/01/16 05:58:48;;;;;;;80.25;42.80;;;;;;;;;;5014048;28;20018;-47
2022/01/16 06:01:13;;;;;;;71.25;40.75;;;;;;;;;;5014072;28;20021;-47
2022/01/16 06:03:39;;;;;;;68.78;40.80;;;;;;;;;;5014017;28;20021;-47
2022/01/16 06:06:04;;;;;;;63.83;36.08;;;;;;;;;;5013934;28;20025;-47
2022/01/16 06:08:29;;;;;;;66.18;35.15;;;;;;;;;;5013943;28;20071;-48
2022/01/16 06:10:59;;;;;;;58.28;32.53;;;;;;;;;;5013766;28;20481;-49
2022/01/16 06:13:24;;;;;;;67.28;36.83;;;;;;;;;;5013874;28;20029;-48
2022/01/16 06:15:50;;;;;;;54.80;33.85;;;;;;;;;;5013672;28;20022;-49
2022/01/16 06:18:15;;;;;;;61.15;34.72;;;;;;;;;;5013837;28;20024;-47
2022/01/16 06:20:41;;;;;;;65.10;36.30;;;;;;;;;;5013867;28;20021;-47
2022/01/16 06:23:26;;;;;;;60.65;36.10;;;;;;;;;;5013780;28;20045;-47
2022/01/16 06:25:54;;;;;;;68.30;35.05;;;;;;;;;;4992009;28;20089;-47
2022/01/16 06:28:20;;;;;;;65.97;36.10;;;;;;;;;;4992104;28;20041;-47
2022/01/16 06:30:45;;;;;;;61.65;33.75;;;;;;;;;;4975705;28;20058;-48
2022/01/16 06:33:14;;;;;;;73.30;38.20;;;;;;;;;;4994533;28;20072;-49
2022/01/16 06:35:39;;;;;;;62.67;36.00;;;;;;;;;;4995350;28;20178;-49
2022/01/16 06:38:04;;;;;;;66.43;35.17;;;;;;;;;;4995411;28;20079;-49
2022/01/16 06:40:30;;;;;;;66.53;37.83;;;;;;;;;;4995535;28;20034;-47
2022/01/16 06:42:55;;;;;;;66.97;37.22;;;;;;;;;;4995475;28;20374;-47
2022/01/16 06:45:20;;;;;;;64.05;35.63;;;;;;;;;;4995554;28;20065;-47
2022/01/16 06:47:45;;;;;;;66.10;36.30;;;;;;;;;;4995333;28;20073;-47
2022/01/16 06:50:11;;;;;;;72.07;37.80;;;;;;;;;;4995156;28;20076;-47
2022/01/16 06:52:36;;;;;;;70.00;36.42;;;;;;;;;;4995220;28;20034;-49
2022/01/16 06:55:02;;;;;;;77.60;39.08;;;;;;;;;;4995165;28;20113;-48
2022/01/16 06:57:30;;;;;;;71.82;38.97;;;;;;;;;;5011521;28;20030;-47
2022/01/16 07:00:00;;;;;;;74.88;38.67;;;;;;;;;;5016832;28;20018;-47
2022/01/16 07:02:27;;;;;;;68.22;37.10;;;;;;;;;;5016802;28;20021;-48
2022/01/16 07:04:55;;;;;;;77.63;39.45;;;;;;;;;;5016597;28;20076;-47
2022/01/16 07:07:20;;;;;;;75.57;39.67;;;;;;;;;;5016572;28;20441;-47
2022/01/16 07:09:45;;;;;;;76.97;40.53;;;;;;;;;;5016590;28;20045;-47
2022/01/16 07:12:11;;;;;;;82.78;41.35;;;;;;;;;;5016516;28;20026;-49
2022/01/16 07:14:37;;;;;;;83.40;42.33;;;;;;;;;;5016456;28;20025;-47
2022/01/16 07:17:02;;;;;;;83.43;42.97;;;;;;;;;;5016426;28;20022;-46
2022/01/16 07:19:27;;;;;;;86.88;42.45;;;;;;;;;;4998890;28;20385;-47
2022/01/16 07:21:54;;;;;;;90.00;45.83;;;;;;;;;;5016256;28;20370;-47
2022/01/16 07:24:25;;;;;;;82.10;42.40;;;;;;;;;;4998840;28;20033;-47
2022/01/16 07:26:50;;;;;;;90.35;45.47;;;;;;;;;;5017649;28;20017;-46
2022/01/16 07:29:21;;;;;;;91.90;45.28;;;;;;;;;;5016241;28;20022;-47
2022/01/16 07:31:46;;;;;;;;;;;;;;;;;;5016817;28;20032;-47
2022/01/16 07:34:11;;;;;;;96.65;43.70;;;;;;;;;;5016339;28;19906;-47
2022/01/16 07:36:40;;;;;;;99.85;47.35;;;;;;;;;;5015928;28;20048;-47
2022/01/16 07:39:05;;;;;;;107.78;47.70;;;;;;;;;;5016027;28;20397;-47
2022/01/16 07:41:30;;;;;;;118.07;51.70;;;;;;;;;;4998503;28;20022;-47
2022/01/16 07:43:56;;;;;;;111.22;50.15;;;;;;;;;;5014902;28;20022;-47
2022/01/16 07:46:21;;;;;;;114.88;49.97;;;;;;;;;;5015850;28;20026;-47
2022/01/16 07:48:46;;;;;;;116.15;48.95;;;;;;;;;;5015766;28;20033;-47
2022/01/16 07:51:11;;;;;;;112.38;48.53;;;;;;;;;;5015686;28;20053;-47
2022/01/16 07:53:40;;;;;;;113.28;48.38;;;;;;;;;;5015847;28;20050;-47
2022/01/16 07:56:05;;;;;;;113.75;48.90;;;;;;;;;;5015602;28;20104;-47
2022/01/16 07:58:30;;;;;;;120.75;50.92;;;;;;;;;;5015651;28;20046;-47
2022/01/16 08:00:56;;;;;;;132.50;51.58;;;;;;;;;;5015590;28;20025;-47
2022/01/16 08:03:24;;;;;;;126.63;50.65;;;;;;;;;;5015484;28;20013;-47
2022/01/16 08:05:50;;;;;;;117.88;49.88;;;;;;;;;;4997882;28;20022;-47
2022/01/16 08:08:15;;;;;;;138.38;56.10;;;;;;;;;;5014833;28;20461;-48
2022/01/16 08:10:40;;;;;;;122.38;52.88;;;;;;;;;;5015421;28;20041;-47
2022/01/16 08:13:06;;;;;;;138.85;53.78;;;;;;;;;;5015409;28;20021;-47
2022/01/16 08:15:31;;;;;;;142.15;55.92;;;;;;;;;;5015218;28;20369;-47
2022/01/16 08:17:56;;;;;;;126.97;53.38;;;;;;;;;;5015312;28;20360;-47
2022/01/16 08:20:24;;;;;;;141.30;56.25;;;;;;;;;;5015178;28;20053;-47
2022/01/16 08:22:49;;;;;;;153.82;58.75;;;;;;;;;;5015351;28;20049;-47
2022/01/16 08:25:15;;;;;;;150.00;55.65;;;;;;;;;;5015135;28;20022;-50
2022/01/16 08:27:41;;;;;;;146.90;56.80;;;;;;;;;;5015164;28;20072;-47
2022/01/16 08:30:14;;;;;;;144.32;56.22;;;;;;;;;;5015062;28;20080;-47
2022/01/16 08:32:43;;;;;;;156.30;57.83;;;;;;;;;;5014779;28;20465;-47
2022/01/16 08:35:10;;;;;;;170.85;56.42;;;;;;;;;;5014862;28;20079;-47
2022/01/16 08:37:36;;;;;;;160.45;58.35;;;;;;;;;;5014855;28;20053;-47
2022/01/16 08:40:02;;;;;;;160.95;56.78;;;;;;;;;;5014970;28;20022;-47
2022/01/16 08:42:27;;;;;;;175.00;59.28;;;;;;;;;;5014770;28;20018;-47
2022/01/16 08:44:52;;;;;;;162.68;58.65;;;;;;;;;;5014770;28;20045;-48
2022/01/16 08:47:18;;;;;;;171.90;58.05;;;;;;;;;;5014806;28;20045;-48
2022/01/16 08:49:43;;;;;;;185.18;63.53;;;;;;;;;;5014598;28;20021;-47
2022/01/16 08:52:09;;;;;;;171.00;59.20;;;;;;;;;;5014849;28;20420;-48
2022/01/16 08:54:34;;;;;;;166.18;59.97;;;;;;;;;;5014343;28;20385;-47
2022/01/16 08:57:00;;;;;;;182.38;61.58;;;;;;;;;;4997093;28;20037;-48
2022/01/16 08:59:25;;;;;;;180.80;62.72;;;;;;;;;;5014701;28;20026;-46
2022/01/16 09:01:50;;;;;;;169.50;59.25;;;;;;;;;;5014648;28;20453;-50
2022/01/16 09:04:16;;;;;;;183.57;60.30;;;;;;;;;;5014582;28;20020;-49
2022/01/16 09:06:41;;;;;;;174.18;60.90;;;;;;;;;;4997005;28;20022;-47
2022/01/16 09:09:11;;;;;;;169.07;59.45;;;;;;;;;;5014566;28;20101;-47
2022/01/16 09:11:39;;;;;;;156.07;55.92;;;;;;;;;;5014402;28;20017;-47
2022/01/16 09:14:04;;;;;;;149.27;56.50;;;;;;;;;;5014526;28;20388;-47
2022/01/16 09:16:31;;;;;;;154.98;58.60;;;;;;;;;;5014326;28;20457;-47
2022/01/16 09:18:56;;;;;;;152.10;56.88;;;;;;;;;;5014397;28;20390;-47
2022/01/16 09:21:21;;;;;;;164.90;61.45;;;;;;;;;;5014344;28;20021;-47
2022/01/16 09:23:47;;;;;;;151.48;58.08;;;;;;;;;;5014346;28;20088;-50
2022/01/16 09:26:13;;;;;;;140.85;56.90;;;;;;;;;;5014287;28;20079;-47
2022/01/16 09:28:39;;;;;;;154.30;57.88;;;;;;;;;;5014372;28;20029;-49
2022/01/16 09:31:05;;;;;;;141.07;54.22;;;;;;;;;;5014354;28;20049;-47
2022/01/16 09:33:33;;;;;;;129.68;54.03;;;;;;;;;;4996608;28;20110;-48
2022/01/16 09:35:58;;;;;;;134.30;53.17;;;;;;;;;;5014126;28;20030;-47
2022/01/16 09:38:24;;;;;;;138.70;55.97;;;;;;;;;;5014022;28;20052;-48
2022/01/16 09:40:49;;;;;;;124.57;51.42;;;;;;;;;;5014136;28;20025;-47
2022/01/16 09:43:15;;;;;;;120.72;51.60;;;;;;;;;;5014286;28;20022;-47
2022/01/16 09:45:40;;;;;;;130.38;54.58;;;;;;;;;;5014107;28;20026;-47
2022/01/16 09:48:05;;;;;;;115.28;51.40;;;;;;;;;;5014067;28;20536;-47
2022/01/16 09:50:31;;;;;;;121.32;53.28;;;;;;;;;;5014260;28;20022;-50
2022/01/16 09:52:56;;;;;;;123.75;52.53;;;;;;;;;;5014107;28;20029;-46
2022/01/16 09:55:27;;;;;;;120.93;51.78;;;;;;;;;;5013981;28;20018;-49
2022/01/16 09:57:52;;;;;;;;;;;;;;;;;;5014548;28;20107;-48
2022/01/16 10:00:20;;;;;;;109.13;49.92;;;;;;;;;;5014185;28;19906;-48
2022/01/16 10:02:46;;;;;;;105.30;48.70;;;;;;;;;;5014095;28;20025;-47
2022/01/16 10:05:22;;;;;;;99.75;47.95;;;;;;;;;;4996424;28;20439;-48
2022/01/16 10:07:47;;;;;;;96.22;45.15;;;;;;;;;;5016187;28;20025;-47
2022/01/16 10:10:13;;;;;;;93.20;47.80;;;;;;;;;;5017689;28;20080;-47
2022/01/16 10:12:46;;;;;;;93.32;45.58;;;;;;;;;;5017737;28;20120;-48
2022/01/16 10:15:15;;;;;;;88.78;43.75;;;;;;;;;;5017584;28;20065;-49
2022/01/16 10:17:45;;;;;;;90.70;46.08;;;;;;;;;;5019082;28;20121;-47
2022/01/16 10:20:10;;;;;;;90.35;44.08;;;;;;;;;;5017799;28;20145;-47
2022/01/16 10:22:40;;;;;;;97.63;47.45;;;;;;;;;;5017907;28;20442;-47
2022/01/16 10:25:06;;;;;;;91.05;45.30;;;;;;;;;;5014210;28;20026;-48
2022/01/16 10:27:36;;;;;;;92.68;45.22;;;;;;;;;;5017440;28;20029;-47
2022/01/16 10:30:07;;;;;;;93.60;45.35;;;;;;;;;;5017487;28;20029;-47
2022/01/16 10:32:32;;;;;;;92.68;45.03;;;;;;;;;;5017395;28;20026;-48
2022/01/16 10:35:17;;;;;;;85.07;42.38;;;;;;;;;;4998191;28;20247;-47
2022/01/16 10:37:46;;;;;;;83.03;41.90;;;;;;;;;;5016893;28;20208;-47
2022/01/16 10:40:14;;;;;;;86.72;41.78;;;;;;;;;;5017423;28;20026;-47
2022/01/16 10:42:48;;;;;;;83.70;41.45;;;;;;;;;;5017297;28;20361;-48
2022/01/16 10:45:14;;;;;;;80.07;43.28;;;;;;;;;;5017032;28;20088;-47
2022/01/16 10:47:41;;;;;;;90.40;44.25;;;;;;;;;;5017393;28;20386;-47
2022/01/16 10:50:13;;;;;;;87.13;43.17;;;;;;;;;;4999779;28;20018;-48
2022/01/16 10:52:47;;;;;;;94.75;43.97;;;;;;;;;;5017303;28;20033;-48
2022/01/16 10:55:12;;;;;;;96.85;45.72;;;;;;;;;;5017372;28;20057;-47
2022/01/16 10:57:37;;;;;;;95.05;44.90;;;;;;;;;;5017082;28;20481;-48
2022/01/16 11:00:04;;;;;;;100.93;46.47;;;;;;;;;;5016918;28;20018;-49
2022/01/16 11:02:29;;;;;;;101.47;47.80;;;;;;;;;;5017078;28;20373;-49
2022/01/16 11:05:03;;;;;;;98.57;46.15;;;;;;;;;;5016817;28;20021;-49
2022/01/16 11:07:28;;;;;;;103.07;47.95;;;;;;;;;;5016561;28;20013;-50
2022/01/16 11:09:53;;;;;;;108.90;50.70;;;;;;;;;;5016616;28;20022;-50
2022/01/16 11:12:18;;;;;;;102.00;46.38;;;;;;;;;;5016596;28;20046;-48
2022/01/16 11:14:46;;;;;;;102.13;46.53;;;;;;;;;;5016421;28;20419;-49
2022/01/16 11:17:12;;;;;;;113.78;50.08;;;;;;;;;;5016390;28;20016;-49
2022/01/16 11:19:37;;;;;;;101.00;47.95;;;;;;;;;;5016276;28;20368;-49
2022/01/16 11:22:10;;;;;;;107.07;48.22;;;;;;;;;;5016323;28;20380;-49
2022/01/16 11:24:59;;;;;;;102.88;47.80;;;;;;;;;;5016310;28;20380;-51
2022/01/16 11:27:24;;;;;;;107.05;48.83;;;;;;;;;;5016253;28;20025;-49
2022/01/16 11:29:49;;;;;;;97.80;46.15;;;;;;;;;;4998680;28;20022;-50
2022/01/16 11:32:14;;;;;;;91.90;43.53;;;;;;;;;;5016190;28;20025;-49
2022/01/16 11:34:40;;;;;;;79.78;39.22;;;;;;;;;;5015893;28;20030;-50
2022/01/16 11:37:05;;;;;;;83.43;40.05;;;;;;;;;;5015492;28;20038;-49
2022/01/16 11:39:35;;;;;;;83.65;41.72;;;;;;;;;;5016077;28;20026;-49
2022/01/16 11:42:00;;;;;;;76.38;40.22;;;;;;;;;;5016006;28;20097;-50
2022/01/16 11:44:29;;;;;;;73.32;37.95;;;;;;;;;;5016072;28;20101;-49
2022/01/16 11:46:57;;;;;;;70.68;36.70;;;;;;;;;;5015874;28;20021;-48
2022/01/16 11:49:41;;;;;;;63.13;35.10;;;;;;;;;;5015737;28;20033;-49
2022/01/16 11:52:10;;;;;;;66.28;35.63;;;;;;;;;;5015833;28;20028;-51
2022/01/16 11:54:37;;;;;;;62.65;33.60;;;;;;;;;;5015816;28;20022;-48
2022/01/16 11:57:04;;;;;;;61.03;33.13;;;;;;;;;;5015535;28;20469;-49
2022/01/16 11:59:35;;;;;;;59.05;32.75;;;;;;;;;;5015662;28;20052;-50
2022/01/16 12:02:06;;;;;;;53.95;30.25;;;;;;;;;;5015646;28;20026;-48
2022/01/16 12:04:31;;;;;;;53.83;31.17;;;;;;;;;;5015563;28;20018;-48
2022/01/16 12:06:57;;;;;;;59.65;33.38;;;;;;;;;;5015402;28;20083;-52
2022/01/16 12:10:20;;;;;;;56.85;31.70;;;;;;;;;;5015373;28;20021;-51
2022/01/16 12:12:20;;;;;;;55.78;31.35;;;;;;;;;;5001327;28;20041;-49
2022/01/16 12:15:01;;;;;;;55.05;30.77;;;;;;;;;;5014976;28;20026;-48
2022/01/16 12:17:29;;;;;;;;;;;;;;;;;;4996104;28;20508;-49
2022/01/16 12:20:02;;;;;;;54.35;32.38;;;;;;;;;;4995595;28;19944;-50
2022/01/16 12:22:52;;;;;;;61.40;34.78;;;;;;;;;;4995626;28;20010;-49
2022/01/16 12:25:26;;;;;;;61.03;33.43;;;;;;;;;;4995703;28;20022;-51
2022/01/16 12:27:55;;;;;;;63.28;34.85;;;;;;;;;;4995622;28;20621;-50
2022/01/16 12:30:20;;;;;;;66.43;37.17;;;;;;;;;;4994911;28;20029;-51
2022/01/16 12:32:54;;;;;;;66.45;37.42;;;;;;;;;;4995492;28;20023;-48
2022/01/16 12:35:38;;;;;;;72.53;38.85;;;;;;;;;;4995285;28;20026;-48
2022/01/16 12:38:10;;;;;;;71.40;36.35;;;;;;;;;;4995085;28;20050;-49
2022/01/16 12:40:35;;;;;;;73.93;40.00;;;;;;;;;;4995234;28;20038;-49
2022/01/16 12:43:02;;;;;;;84.30;40.15;;;;;;;;;;4995266;28;20057;-51
2022/01/16 12:45:29;;;;;;;80.60;41.40;;;;;;;;;;4995068;28;20037;-49
2022/01/16 12:48:00;;;;;;;83.50;42.03;;;;;;;;;;4995065;28;20026;-48
2022/01/16 12:50:27;;;;;;;83.28;40.65;;;;;;;;;;4995159;28;20101;-50
2022/01/16 12:52:58;;;;;;;82.55;43.95;;;;;;;;;;4994996;28;20029;-48
2022/01/16 12:55:26;;;;;;;83.47;43.80;;;;;;;;;;4994963;28;20022;-50
2022/01/16 12:58:13;;;;;;;90.72;44.65;;;;;;;;;;4994956;28;20014;-49
2022/01/16 13:00:56;;;;;;;91.03;45.88;;;;;;;;;;4994954;28;20105;-49
2022/01/16 13:03:28;;;;;;;95.18;47.15;;;;;;;;;;4994900;28;20019;-49
2022/01/16 13:06:12;;;;;;;93.47;47.00;;;;;;;;;;4995007;28;20022;-48
2022/01/16 13:08:49;;;;;;;99.45;46.78;;;;;;;;;;4994796;28;20027;-49
2022/01/16 13:11:15;;;;;;;104.00;50.67;;;;;;;;;;4994927;28;20022;-49
2022/01/16 13:13:41;;;;;;;101.78;49.60;;;;;;;;;;4994864;28;20018;-48
2022/01/16 13:16:23;;;;;;;105.53;50.63;;;;;;;;;;4994622;28;20519;-48
2022/01/16 13:19:08;;;;;;;103.65;50.90;;;;;;;;;;4994648;28;20052;-49
2022/01/16 13:21:41;;;;;;;109.88;51.78;;;;;;;;;;5007789;28;20018;-51
2022/01/16 13:24:06;;;;;;;106.00;52.45;;;;;;;;;;5014446;28;20025;-49
2022/01/16 13:26:36;;;;;;;107.75;51.70;;;;;;;;;;5014316;28;20022;-48
2022/01/16 13:29:09;;;;;;;98.35;49.78;;;;;;;;;;5014320;28;20029;-48
2022/01/16 13:31:37;;;;;;;109.03;52.92;;;;;;;;;;5014239;28;20483;-48
2022/01/16 13:34:13;;;;;;;114.78;52.03;;;;;;;;;;5012991;28;20017;-51
2022/01/16 13:36:49;;;;;;;107.47;51.58;;;;;;;;;;5021275;23;20082;-48
2022/01/16 13:39:14;;;;;;;105.78;51.97;;;;;;;;;;4996679;28;20066;-49
2022/01/16 13:41:43;;;;;;;102.15;51.95;;;;;;;;;;5014589;28;20392;-50
2022/01/16 13:44:25;;;;;;;106.43;52.67;;;;;;;;;;5018103;28;20028;-48
2022/01/16 13:46:57;;;;;;;107.97;53.67;;;;;;;;;;5018043;28;20373;-51
2022/01/16 13:49:22;;;;;;;102.78;51.22;;;;;;;;;;5017571;28;20377;-51
2022/01/16 13:51:54;;;;;;;117.38;53.58;;;;;;;;;;5018075;28;20018;-48
2022/01/16 13:54:19;;;;;;;106.90;52.67;;;;;;;;;;5018078;28;20024;-48
2022/01/16 13:56:49;;;;;;;115.80;54.95;;;;;;;;;;5017891;28;20376;-48
2022/01/16 13:59:14;;;;;;;105.32;49.00;;;;;;;;;;5018125;28;20101;-48
2022/01/16 14:01:51;;;;;;;110.28;54.55;;;;;;;;;;5018071;28;20127;-50
2022/01/16 14:04:16;;;;;;;115.13;54.80;;;;;;;;;;5017879;28;20014;-50
2022/01/16 14:06:52;;;;;;;102.45;51.70;;;;;;;;;;5017883;28;20014;-49
2022/01/16 14:09:18;;;;;;;105.97;53.67;;;;;;;;;;5017736;28;20026;-50
2022/01/16 14:11:51;;;;;;;117.32;52.78;;;;;;;;;;5017629;28;20017;-51
2022/01/16 14:14:18;;;;;;;101.40;51.55;;;;;;;;;;5017688;28;20036;-51
2022/01/16 14:19:42;;;;;;;101.18;51.95;;;;;;;;;;4987269;28;20109;-50
2022/01/16 14:22:14;;;;;;;103.80;52.03;;;;;;;;;;5000855;28;20019;-49
2022/01/16 14:24:46;;;;;;;109.18;51.60;;;;;;;;;;5017638;28;20032;-48
2022/01/16 14:27:16;;;;;;;97.30;51.35;;;;;;;;;;5017494;28;20076;-49
2022/01/16 14:29:42;;;;;;;97.60;49.45;;;;;;;;;;5017289;28;20018;-48
2022/01/16 14:32:10;;;;;;;97.72;50.75;;;;;;;;;;5017472;28;20029;-48
2022/01/16 14:34:42;;;;;;;97.63;49.22;;;;;;;;;;4999786;28;20440;-48
2022/01/16 14:37:08;;;;;;;95.60;51.42;;;;;;;;;;5016946;28;20076;-49
2022/01/16 14:39:34;;;;;;;91.85;49.10;;;;;;;;;;5017258;28;20022;-47
2022/01/16 14:41:59;;;;;;;94.15;49.65;;;;;;;;;;5017349;28;20117;-48
2022/01/16 14:44:29;;;;;;;96.65;47.47;;;;;;;;;;5017079;28;20021;-47
2022/01/16 14:46:59;;;;;;;104.20;49.28;;;;;;;;;;5017146;28;20466;-48
2022/01/16 14:49:25;;;;;;;95.45;49.60;;;;;;;;;;5016952;28;20048;-49
2022/01/16 14:51:50;;;;;;;106.25;51.35;;;;;;;;;;5016923;28;20466;-48
2022/01/16 14:54:16;;;;;;;89.25;47.00;;;;;;;;;;5016341;28;20152;-49